Time;durP1;ratioP1;P1;durP2;ratioP2;P2;SDS_P1;SDS_P2;PMS_P1;PMS_P2;Temp;Humidity;BMP_temperature;BMP_pressure;BME280_temperature;BME280_humidity;BME280_pressure;Samples;Min_cycle;Max_cycle;Signal;HPM_P1;HPM_P2
2022/05/22 00:01:42;;;;;;;;;3.25;3.00;;;;;;;;5037525;28;8837;-76
2022/05/22 00:04:10;;;;;;;;;5.00;5.00;;;;;;;;5036296;28;8863;-74
2022/05/22 00:06:38;;;;;;;;;2.25;2.25;;;;;;;;5040258;28;8870;-76
2022/05/22 00:09:05;;;;;;;;;5.00;3.00;;;;;;;;5037179;28;8863;-79
2022/05/22 00:11:32;;;;;;;;;4.00;3.25;;;;;;;;5042084;28;8912;-74
2022/05/22 00:13:59;;;;;;;;;2.00;2.00;;;;;;;;5036208;28;8867;-75
2022/05/22 00:16:40;;;;;;;;;3.33;3.33;;;;;;;;5040108;28;10199;-74
2022/05/22 00:19:10;;;;;;;;;2.00;2.00;;;;;;;;5041596;28;9103;-75
2022/05/22 00:21:39;;;;;;;;;4.00;4.00;;;;;;;;5040273;28;8863;-76
2022/05/22 00:24:07;;;;;;;;;3.25;3.25;;;;;;;;5041958;28;8883;-75
2022/05/22 00:26:35;;;;;;;;;3.00;3.00;;;;;;;;5036303;28;8883;-75
2022/05/22 00:29:02;;;;;;;;;2.75;2.75;;;;;;;;5035942;28;9010;-75
2022/05/22 00:31:30;;;;;;;;;5.67;5.67;;;;;;;;5045071;28;8823;-75
2022/05/22 00:33:57;;;;;;;;;7.33;5.00;;;;;;;;5038675;28;9262;-75
2022/05/22 00:36:26;;;;;;;;;4.00;4.00;;;;;;;;5051287;28;9948;-75
2022/05/22 00:38:53;;;;;;;;;7.67;5.33;;;;;;;;5039132;28;9120;-74
2022/05/22 00:41:21;;;;;;;;;3.00;3.00;;;;;;;;5039708;28;9119;-74
2022/05/22 00:43:50;;;;;;;;;5.67;5.00;;;;;;;;5049648;28;9139;-75
2022/05/22 00:46:19;;;;;;;;;6.00;4.00;;;;;;;;5040962;28;9130;-74
2022/05/22 00:48:48;;;;;;;;;11.67;9.00;;;;;;;;5045864;28;9182;-76
2022/05/22 00:51:18;;;;;;;;;8.33;8.33;;;;;;;;5037246;28;9491;-75
2022/05/22 00:53:51;;;;;;;;;6.33;6.33;;;;;;;;5040515;28;9428;-76
2022/05/22 00:56:21;;;;;;;;;8.00;5.00;;;;;;;;5038465;28;9283;-74
2022/05/22 00:58:52;;;;;;;;;5.00;4.00;;;;;;;;5048228;28;9442;-74
2022/05/22 01:01:19;;;;;;;;;4.00;4.00;;;;;;;;5040150;28;9207;-75
2022/05/22 01:03:46;;;;;;;;;8.00;6.00;;;;;;;;5041921;28;9269;-73
2022/05/22 01:06:16;;;;;;;;;5.67;5.67;;;;;;;;5040330;28;9447;-77
2022/05/22 01:08:46;;;;;;;;;6.33;6.33;;;;;;;;5042215;28;9345;-76
2022/05/22 01:11:18;;;;;;;;;6.33;4.00;;;;;;;;5040701;28;9405;-73
2022/05/22 01:13:52;;;;;;;;;8.33;5.67;;;;;;;;5039758;28;9429;-76
2022/05/22 01:16:20;;;;;;;;;5.00;5.00;;;;;;;;5045787;28;9346;-75
2022/05/22 01:18:50;;;;;;;;;4.00;4.00;;;;;;;;5042920;28;9316;-75
2022/05/22 01:21:20;;;;;;;;;2.67;2.67;;;;;;;;5044626;28;9275;-77
2022/05/22 01:23:49;;;;;;;;;4.33;4.00;;;;;;;;5044486;28;9397;-75
2022/05/22 01:26:18;;;;;;;;;3.00;3.00;;;;;;;;5041333;28;9465;-76
2022/05/22 01:28:45;;;;;;;;;3.00;3.00;;;;;;;;5034981;28;9421;-75
2022/05/22 01:31:13;;;;;;;;;5.00;5.00;;;;;;;;5037369;28;9273;-76
2022/05/22 01:33:41;;;;;;;;;3.67;3.67;;;;;;;;5042233;28;9344;-75
2022/05/22 01:36:10;;;;;;;;;4.00;4.00;;;;;;;;5043349;28;9343;-77
2022/05/22 01:38:38;;;;;;;;;3.00;3.00;;;;;;;;5038205;28;9429;-76
2022/05/22 01:41:07;;;;;;;;;3.67;2.67;;;;;;;;5040745;28;10091;-74
2022/05/22 01:43:35;;;;;;;;;2.00;2.00;;;;;;;;5039810;28;9359;-75
2022/05/22 01:46:02;;;;;;;;;2.67;2.67;;;;;;;;5041793;28;9443;-75
2022/05/22 01:48:29;;;;;;;;;3.00;3.00;;;;;;;;5036315;28;9420;-74
2022/05/22 01:50:57;;;;;;;;;3.00;3.00;;;;;;;;5038255;28;10296;-74
2022/05/22 01:53:24;;;;;;;;;2.67;2.67;;;;;;;;5027457;28;9471;-76
2022/05/22 01:55:51;;;;;;;;;2.00;2.00;;;;;;;;5043160;28;9500;-76
2022/05/22 01:58:20;;;;;;;;;3.00;3.00;;;;;;;;5041307;28;9473;-76
2022/05/22 02:00:48;;;;;;;;;4.25;3.00;;;;;;;;5044641;28;10228;-78
2022/05/22 02:03:15;;;;;;;;;4.25;3.00;;;;;;;;5043299;28;9645;-74
2022/05/22 02:05:44;;;;;;;;;7.50;3.75;;;;;;;;5037887;28;10240;-77
2022/05/22 02:08:19;;;;;;;;;5.75;4.00;;;;;;;;5044147;28;9635;-75
2022/05/22 02:10:47;;;;;;;;;8.00;5.00;;;;;;;;5044001;28;9619;-76
2022/05/22 02:13:18;;;;;;;;;4.00;4.00;;;;;;;;5046243;28;9572;-75
2022/05/22 02:15:48;;;;;;;;;6.50;4.00;;;;;;;;5043865;28;9714;-75
2022/05/22 02:18:15;;;;;;;;;4.00;4.00;;;;;;;;5033288;28;9718;-77
2022/05/22 02:20:42;;;;;;;;;4.25;4.25;;;;;;;;5044384;28;9642;-75
2022/05/22 02:23:09;;;;;;;;;5.75;5.00;;;;;;;;5038475;28;9708;-76
2022/05/22 02:25:39;;;;;;;;;5.00;5.00;;;;;;;;5044725;28;9561;-76
2022/05/22 02:28:08;;;;;;;;;7.00;4.25;;;;;;;;5042262;28;10484;-78
2022/05/22 02:30:39;;;;;;;;;4.25;4.25;;;;;;;;5033038;28;9663;-74
2022/05/22 02:33:10;;;;;;;;;7.00;4.00;;;;;;;;5032028;28;9740;-76
2022/05/22 02:35:37;;;;;;;;;4.75;4.75;;;;;;;;5034410;28;9719;-74
2022/05/22 02:38:05;;;;;;;;;4.00;4.00;;;;;;;;5043379;28;9821;-75
2022/05/22 02:40:34;;;;;;;;;7.00;4.75;;;;;;;;5040833;28;9891;-75
2022/05/22 02:43:01;;;;;;;;;6.00;3.75;;;;;;;;5038235;28;9553;-76
2022/05/22 02:45:30;;;;;;;;;4.50;4.50;;;;;;;;5036735;28;9685;-76
2022/05/22 02:47:58;;;;;;;;;4.00;4.00;;;;;;;;5036376;28;9555;-73
2022/05/22 02:50:28;;;;;;;;;6.50;6.50;;;;;;;;5029013;28;9590;-76
2022/05/22 02:52:56;;;;;;;;;6.00;4.25;;;;;;;;5024987;28;9645;-76
2022/05/22 02:55:23;;;;;;;;;7.00;7.00;;;;;;;;5045490;28;9672;-75
2022/05/22 02:57:51;;;;;;;;;7.25;4.50;;;;;;;;5043396;28;9730;-79
2022/05/22 03:00:20;;;;;;;;;8.75;7.25;;;;;;;;5041253;28;9907;-78
2022/05/22 03:02:47;;;;;;;;;8.00;8.00;;;;;;;;5035543;28;9614;-79
2022/05/22 03:05:15;;;;;;;;;9.25;9.25;;;;;;;;5044426;28;9907;-80
2022/05/22 03:07:44;;;;;;;;;9.50;8.00;;;;;;;;5036961;28;9758;-77
2022/05/22 03:10:13;;;;;;;;;9.75;9.00;;;;;;;;5031254;28;9881;-77
2022/05/22 03:12:41;;;;;;;;;6.50;6.50;;;;;;;;5039009;28;9781;-78
2022/05/22 03:15:10;;;;;;;;;9.50;6.50;;;;;;;;5034564;28;9835;-77
2022/05/22 03:17:38;;;;;;;;;9.50;9.50;;;;;;;;5038898;28;9961;-80
2022/05/22 03:20:07;;;;;;;;;11.00;7.75;;;;;;;;5041821;28;9935;-76
2022/05/22 03:22:34;;;;;;;;;7.00;7.00;;;;;;;;5043820;28;11067;-74
2022/05/22 03:25:03;;;;;;;;;9.00;5.00;;;;;;;;5029143;28;9793;-73
2022/05/22 03:27:30;;;;;;;;;4.75;4.75;;;;;;;;5030386;28;9897;-79
2022/05/22 03:29:57;;;;;;;;;8.00;8.00;;;;;;;;5035135;28;9887;-76
2022/05/22 03:32:25;;;;;;;;;7.00;7.00;;;;;;;;5031409;28;10691;-76
2022/05/22 03:34:53;;;;;;;;;5.25;5.25;;;;;;;;5071277;28;10012;-74
2022/05/22 03:37:20;;;;;;;;;5.50;5.50;;;;;;;;5038407;28;9890;-76
2022/05/22 03:39:47;;;;;;;;;7.75;7.75;;;;;;;;5030006;28;9710;-75
2022/05/22 03:42:16;;;;;;;;;6.25;6.00;;;;;;;;5029652;28;9909;-75
2022/05/22 03:44:43;;;;;;;;;4.00;4.00;;;;;;;;5026131;28;9807;-79
2022/05/22 03:47:11;;;;;;;;;7.00;7.00;;;;;;;;5039180;28;9935;-74
2022/05/22 03:49:38;;;;;;;;;5.50;5.50;;;;;;;;5041103;28;9837;-76
2022/05/22 03:52:06;;;;;;;;;3.00;3.00;;;;;;;;5033399;28;9626;-74
2022/05/22 03:54:34;;;;;;;;;8.00;6.50;;;;;;;;5034390;28;9837;-74
2022/05/22 03:57:01;;;;;;;;;7.00;7.00;;;;;;;;5028335;28;9799;-75
2022/05/22 03:59:31;;;;;;;;;7.25;5.00;;;;;;;;5034675;28;9821;-74
2022/05/22 04:01:59;;;;;;;;;3.75;3.00;;;;;;;;5029269;28;9735;-76
2022/05/22 04:04:26;;;;;;;;;4.75;4.75;;;;;;;;5035318;28;9712;-75
2022/05/22 04:06:53;;;;;;;;;3.50;3.50;;;;;;;;5040177;28;9890;-74
2022/05/22 04:09:20;;;;;;;;;3.00;3.00;;;;;;;;5037733;28;9626;-76
2022/05/22 04:11:47;;;;;;;;;4.00;4.00;;;;;;;;5071341;28;9722;-76
2022/05/22 04:14:18;;;;;;;;;3.50;3.50;;;;;;;;5035677;28;10560;-77
2022/05/22 04:16:47;;;;;;;;;3.00;3.00;;;;;;;;5025456;28;9801;-74
2022/05/22 04:19:15;;;;;;;;;3.00;3.00;;;;;;;;5031812;28;9900;-75
2022/05/22 04:21:43;;;;;;;;;4.00;4.00;;;;;;;;5042146;28;10649;-76
2022/05/22 04:26:56;;;;;;;;;3.25;3.25;;;;;;;;5037054;28;10701;-73
2022/05/22 04:29:24;;;;;;;;;3.00;3.00;;;;;;;;5033171;28;9795;-77
2022/05/22 04:31:53;;;;;;;;;3.00;3.00;;;;;;;;5036334;28;9841;-77
2022/05/22 04:34:20;;;;;;;;;3.00;3.00;;;;;;;;5032798;28;9866;-76
2022/05/22 04:36:47;;;;;;;;;1.25;1.25;;;;;;;;5040149;28;9988;-76
2022/05/22 04:39:14;;;;;;;;;4.00;4.00;;;;;;;;5026742;28;9631;-76
2022/05/22 04:41:42;;;;;;;;;4.75;4.75;;;;;;;;5036999;28;9825;-74
2022/05/22 04:44:09;;;;;;;;;4.50;3.75;;;;;;;;5039465;28;9782;-77
2022/05/22 04:46:36;;;;;;;;;7.00;4.75;;;;;;;;5027313;28;9800;-77
2022/05/22 04:49:05;;;;;;;;;2.25;2.25;;;;;;;;5034035;28;9881;-75
2022/05/22 04:51:33;;;;;;;;;4.75;3.00;;;;;;;;5024438;28;9860;-75
2022/05/22 04:54:00;;;;;;;;;3.00;3.00;;;;;;;;5027315;28;9746;-74
2022/05/22 04:56:28;;;;;;;;;4.00;4.00;;;;;;;;5040186;28;9898;-75
2022/05/22 04:58:55;;;;;;;;;2.75;2.75;;;;;;;;5037535;28;10455;-75
2022/05/22 05:01:22;;;;;;;;;7.00;4.00;;;;;;;;5041063;28;9667;-74
2022/05/22 05:03:50;;;;;;;;;7.25;7.25;;;;;;;;5037166;28;9679;-75
2022/05/22 05:06:19;;;;;;;;;4.50;4.50;;;;;;;;5034355;28;9723;-76
2022/05/22 05:08:46;;;;;;;;;4.50;4.50;;;;;;;;5036769;28;9564;-74
2022/05/22 05:11:14;;;;;;;;;8.25;6.75;;;;;;;;5025597;28;9575;-72
2022/05/22 05:13:41;;;;;;;;;9.75;8.00;;;;;;;;5032019;28;9474;-74
2022/05/22 05:16:10;;;;;;;;;10.50;8.50;;;;;;;;5038983;28;9509;-76
2022/05/22 05:18:38;;;;;;;;;8.75;8.75;;;;;;;;5036930;28;9608;-76
2022/05/22 05:21:09;;;;;;;;;9.00;9.00;;;;;;;;5038954;28;9547;-78
2022/05/22 05:23:39;;;;;;;;;13.33;13.33;;;;;;;;5038317;28;9484;-81
2022/05/22 05:26:07;;;;;;;;;15.25;15.25;;;;;;;;5035446;28;9572;-79
2022/05/22 05:28:34;;;;;;;;;11.33;11.33;;;;;;;;5031988;28;9593;-80
2022/05/22 05:31:03;;;;;;;;;10.00;10.00;;;;;;;;5036564;28;10038;-80
2022/05/22 05:33:33;;;;;;;;;17.33;16.00;;;;;;;;5034245;28;9272;-80
2022/05/22 05:36:00;;;;;;;;;12.00;10.00;;;;;;;;5033360;28;9276;-83
2022/05/22 05:38:28;;;;;;;;;12.00;12.00;;;;;;;;5038569;28;9204;-80
2022/05/22 05:40:56;;;;;;;;;15.33;13.67;;;;;;;;5036361;28;9041;-77
2022/05/22 05:43:24;;;;;;;;;12.67;11.33;;;;;;;;5040233;28;9049;-81
2022/05/22 05:45:51;;;;;;;;;10.00;10.00;;;;;;;;5036613;28;9003;-80
2022/05/22 05:48:19;;;;;;;;;11.75;11.75;;;;;;;;5040983;28;8858;-79
2022/05/22 05:50:46;;;;;;;;;13.00;13.00;;;;;;;;5030437;28;8861;-82
2022/05/22 05:53:14;;;;;;;;;16.00;13.00;;;;;;;;5033659;28;8881;-81
2022/05/22 05:55:41;;;;;;;;;11.25;11.25;;;;;;;;5041903;28;8863;-81
2022/05/22 05:58:10;;;;;;;;;12.00;12.00;;;;;;;;5034224;28;8894;-78
2022/05/22 06:00:38;;;;;;;;;9.50;8.50;;;;;;;;5034454;28;9461;-74
2022/05/22 06:03:05;;;;;;;;;10.00;10.00;;;;;;;;5036373;28;8894;-77
2022/05/22 06:05:33;;;;;;;;;12.75;11.50;;;;;;;;5041710;28;8847;-78
2022/05/22 06:08:00;;;;;;;;;9.50;7.25;;;;;;;;5043425;28;8889;-79
2022/05/22 06:10:27;;;;;;;;;11.00;11.00;;;;;;;;5043352;28;8873;-81
2022/05/22 06:12:54;;;;;;;;;10.00;10.00;;;;;;;;5040194;28;9108;-76
2022/05/22 06:15:23;;;;;;;;;13.00;11.00;;;;;;;;5041754;28;8859;-77
2022/05/22 06:17:54;;;;;;;;;13.00;12.00;;;;;;;;5044000;28;8851;-79
2022/05/22 06:20:22;;;;;;;;;8.75;8.75;;;;;;;;5042531;28;8851;-78
2022/05/22 06:22:49;;;;;;;;;10.00;10.00;;;;;;;;5043771;28;8899;-80
2022/05/22 06:25:17;;;;;;;;;12.75;9.00;;;;;;;;5044378;28;8881;-79
2022/05/22 06:27:45;;;;;;;;;11.75;7.75;;;;;;;;5042059;28;8847;-76
2022/05/22 06:30:14;;;;;;;;;9.00;9.00;;;;;;;;5041527;28;8879;-79
2022/05/22 06:32:43;;;;;;;;;13.75;11.00;;;;;;;;5044995;28;8877;-75
2022/05/22 06:35:12;;;;;;;;;9.50;9.50;;;;;;;;5039451;28;8889;-73
2022/05/22 06:37:39;;;;;;;;;11.00;9.75;;;;;;;;5044446;28;8867;-75
2022/05/22 06:40:07;;;;;;;;;16.25;14.75;;;;;;;;5042486;28;8916;-78
2022/05/22 06:42:37;;;;;;;;;15.25;13.50;;;;;;;;5033891;28;9643;-76
2022/05/22 06:45:07;;;;;;;;;14.25;12.25;;;;;;;;5036228;28;8858;-74
2022/05/22 06:47:36;;;;;;;;;13.00;13.00;;;;;;;;5042841;28;8878;-75
2022/05/22 06:50:08;;;;;;;;;14.50;14.00;;;;;;;;5032964;28;8891;-74
2022/05/22 06:52:36;;;;;;;;;17.25;15.75;;;;;;;;5043325;28;8894;-74
2022/05/22 06:55:05;;;;;;;;;16.75;15.00;;;;;;;;5040067;28;8936;-74
2022/05/22 06:57:33;;;;;;;;;13.33;13.33;;;;;;;;5027364;28;8879;-74
2022/05/22 07:00:03;;;;;;;;;14.50;14.50;;;;;;;;5038126;28;8839;-75
2022/05/22 07:02:30;;;;;;;;;17.00;16.00;;;;;;;;5041784;28;8900;-75
2022/05/22 07:04:59;;;;;;;;;18.25;15.50;;;;;;;;5039976;28;8863;-76
2022/05/22 07:07:27;;;;;;;;;14.00;14.00;;;;;;;;5034590;28;8881;-75
2022/05/22 07:09:55;;;;;;;;;14.75;14.75;;;;;;;;5039729;28;8870;-75
2022/05/22 07:12:22;;;;;;;;;13.75;13.75;;;;;;;;5035944;28;8901;-75
2022/05/22 07:14:53;;;;;;;;;12.25;12.25;;;;;;;;5042887;28;8883;-76
2022/05/22 07:17:24;;;;;;;;;12.00;12.00;;;;;;;;5040658;28;8879;-74
2022/05/22 07:19:52;;;;;;;;;11.25;11.00;;;;;;;;5043311;28;8854;-75
2022/05/22 07:22:19;;;;;;;;;11.50;11.50;;;;;;;;5038941;28;8851;-75
2022/05/22 07:24:48;;;;;;;;;12.25;11.00;;;;;;;;5036299;28;8918;-74
2022/05/22 07:27:15;;;;;;;;;12.50;10.75;;;;;;;;5039282;28;8993;-77
2022/05/22 07:29:43;;;;;;;;;7.00;7.00;;;;;;;;5038289;28;10122;-74
2022/05/22 07:32:10;;;;;;;;;10.00;8.25;;;;;;;;5037457;28;8860;-76
2022/05/22 07:34:40;;;;;;;;;10.25;10.25;;;;;;;;5031320;28;8867;-74
2022/05/22 07:37:09;;;;;;;;;9.00;9.00;;;;;;;;5035301;28;9744;-73
2022/05/22 07:39:37;;;;;;;;;8.00;8.00;;;;;;;;5037282;28;8870;-74
2022/05/22 07:42:07;;;;;;;;;10.75;9.50;;;;;;;;5036434;28;8863;-75
2022/05/22 07:44:34;;;;;;;;;8.00;8.00;;;;;;;;5036212;28;8902;-74
2022/05/22 07:47:01;;;;;;;;;6.00;6.00;;;;;;;;5042169;28;8885;-74
2022/05/22 07:52:15;;;;;;;;;7.75;7.75;;;;;;;;5014816;28;9643;-74
2022/05/22 07:54:42;;;;;;;;;7.75;7.75;;;;;;;;5027646;28;8882;-73
2022/05/22 07:57:11;;;;;;;;;6.00;6.00;;;;;;;;5039640;28;8891;-76
2022/05/22 07:59:40;;;;;;;;;7.75;7.75;;;;;;;;5038089;28;8869;-76
2022/05/22 08:02:12;;;;;;;;;6.60;6.60;;;;;;;;5040932;28;8877;-75
2022/05/22 08:04:39;;;;;;;;;5.20;5.20;;;;;;;;5038606;28;9704;-76
2022/05/22 08:07:07;;;;;;;;;6.00;6.00;;;;;;;;5033250;28;8855;-77
2022/05/22 08:09:34;;;;;;;;;7.00;7.00;;;;;;;;5027425;28;10005;-76
2022/05/22 08:12:02;;;;;;;;;7.40;6.00;;;;;;;;5038030;28;8847;-77
2022/05/22 08:14:30;;;;;;;;;6.40;5.00;;;;;;;;5015943;28;9031;-76
2022/05/22 08:16:58;;;;;;;;;5.20;5.20;;;;;;;;5035146;28;9645;-77
2022/05/22 08:19:26;;;;;;;;;6.40;5.00;;;;;;;;5031906;28;9072;-77
2022/05/22 08:21:53;;;;;;;;;4.40;4.40;;;;;;;;5034781;28;8911;-78
2022/05/22 08:24:21;;;;;;;;;4.20;4.20;;;;;;;;5032010;28;8960;-76
2022/05/22 08:26:48;;;;;;;;;5.20;5.20;;;;;;;;5031842;28;8891;-77
2022/05/22 08:29:16;;;;;;;;;7.00;5.00;;;;;;;;5036647;28;8858;-76
2022/05/22 08:31:45;;;;;;;;;9.40;7.40;;;;;;;;5040236;28;8949;-76
2022/05/22 08:34:13;;;;;;;;;10.40;8.20;;;;;;;;5042287;28;8891;-75
2022/05/22 08:36:40;;;;;;;;;6.40;6.20;;;;;;;;5032396;28;8897;-74
2022/05/22 08:39:08;;;;;;;;;4.80;4.80;;;;;;;;5032131;28;8975;-75
2022/05/22 08:41:39;;;;;;;;;5.60;4.40;;;;;;;;5035418;28;8885;-75
2022/05/22 08:44:11;;;;;;;;;6.60;6.60;;;;;;;;5028317;28;8858;-74
2022/05/22 08:46:57;;;;;;;;;6.40;3.40;;;;;;;;5029866;28;8835;-75
2022/05/22 08:49:30;;;;;;;;;5.60;5.20;;;;;;;;5028258;28;9093;-75
2022/05/22 08:52:02;;;;;;;;;5.20;5.20;;;;;;;;5029181;28;9492;-74
2022/05/22 08:54:33;;;;;;;;;7.40;4.40;;;;;;;;5028629;28;8905;-73
2022/05/22 08:59:51;;;;;;;;;3.60;3.60;;;;;;;;5031111;28;9010;-74
2022/05/22 09:02:30;;;;;;;;;4.60;4.60;;;;;;;;5028672;28;8840;-76
2022/05/22 09:05:00;;;;;;;;;3.40;3.20;;;;;;;;5032804;28;8910;-75
2022/05/22 09:07:41;;;;;;;;;3.80;3.80;;;;;;;;5029204;28;8875;-73
2022/05/22 09:10:11;;;;;;;;;3.80;3.80;;;;;;;;5030978;28;8863;-73
2022/05/22 09:12:52;;;;;;;;;14.00;13.40;;;;;;;;5029645;28;8846;-73
2022/05/22 09:15:23;;;;;;;;;724.25;528.25;;;;;;;;5029669;28;9040;-73
2022/05/22 09:18:00;;;;;;;;;0.60;0.00;;;;;;;;5035349;28;8866;-74
2022/05/22 09:20:36;;;;;;;;;3.00;2.60;;;;;;;;5033863;28;8871;-75
2022/05/22 09:23:13;;;;;;;;;2.60;2.60;;;;;;;;5046821;28;8860;-75
2022/05/22 09:25:49;;;;;;;;;1.60;1.60;;;;;;;;5042940;28;10190;-76
2022/05/22 09:28:23;;;;;;;;;2.60;2.00;;;;;;;;5040513;28;8889;-76
2022/05/22 09:30:54;;;;;;;;;3.20;2.60;;;;;;;;5040892;28;8803;-75
2022/05/22 09:33:31;;;;;;;;;3.80;2.40;;;;;;;;5041881;28;9037;-76
2022/05/22 09:36:08;;;;;;;;;3.20;2.60;;;;;;;;5042398;28;8862;-74
2022/05/22 09:38:52;;;;;;;;;1.60;1.60;;;;;;;;5043297;28;8854;-75
2022/05/22 09:41:29;;;;;;;;;1.60;1.60;;;;;;;;5045491;28;8864;-76
2022/05/22 09:44:13;;;;;;;;;1.80;1.80;;;;;;;;5037992;28;8856;-75
2022/05/22 09:47:05;;;;;;;;;2.40;2.40;;;;;;;;5034169;28;8898;-75
2022/05/22 09:49:45;;;;;;;;;5.20;2.60;;;;;;;;5034527;28;9010;-77
2022/05/22 09:52:19;;;;;;;;;1.60;1.60;;;;;;;;5038082;28;8993;-73
2022/05/22 09:55:00;;;;;;;;;3.40;1.80;;;;;;;;5040652;28;8889;-76
2022/05/22 09:57:41;;;;;;;;;2.80;2.80;;;;;;;;5046005;28;8862;-77
2022/05/22 10:00:11;;;;;;;;;3.80;1.80;;;;;;;;5037236;28;8883;-73
2022/05/22 10:02:45;;;;;;;;;7.80;7.80;;;;;;;;5037413;28;8883;-77
2022/05/22 10:05:24;;;;;;;;;621.00;563.40;;;;;;;;5038534;28;8857;-80
2022/05/22 10:07:59;;;;;;;;;22.40;21.80;;;;;;;;5042400;28;8873;-74
2022/05/22 10:10:30;;;;;;;;;383.25;365.25;;;;;;;;5046200;28;8875;-81
2022/05/22 10:13:04;;;;;;;;;739.80;669.40;;;;;;;;5041709;28;8897;-74
2022/05/22 10:15:50;;;;;;;;;38.00;32.75;;;;;;;;5038558;28;8851;-76
2022/05/22 10:18:25;;;;;;;;;57.75;47.25;;;;;;;;5036585;28;8937;-74
2022/05/22 10:21:03;;;;;;;;;22.60;20.80;;;;;;;;5037670;28;8855;-76
2022/05/22 10:23:48;;;;;;;;;3.80;2.60;;;;;;;;5037401;28;8981;-75
2022/05/22 10:26:25;;;;;;;;;1.60;1.60;;;;;;;;5039521;28;8892;-75
2022/05/22 10:28:57;;;;;;;;;2.00;2.00;;;;;;;;5044620;28;8891;-75
2022/05/22 10:31:33;;;;;;;;;8.80;7.80;;;;;;;;5064492;28;9768;-76
2022/05/22 10:34:05;;;;;;;;;1.40;1.40;;;;;;;;5042965;28;8883;-77
2022/05/22 10:36:38;;;;;;;;;4.80;4.80;;;;;;;;5035930;28;9670;-75
2022/05/22 10:39:08;;;;;;;;;4.40;4.40;;;;;;;;5040034;28;8891;-78
2022/05/22 10:44:30;;;;;;;;;2.40;2.40;;;;;;;;5032996;28;8836;-76
2022/05/22 10:47:02;;;;;;;;;6.00;5.80;;;;;;;;5036239;28;8994;-75
2022/05/22 10:49:37;;;;;;;;;17.00;17.00;;;;;;;;5035518;28;8859;-76
2022/05/22 10:52:08;;;;;;;;;31.00;28.40;;;;;;;;5036235;28;9461;-74
2022/05/22 10:54:43;;;;;;;;;10.20;8.80;;;;;;;;5041586;28;8869;-75
2022/05/22 10:57:13;;;;;;;;;5.80;5.80;;;;;;;;5032931;28;8854;-74
2022/05/22 10:59:41;;;;;;;;;4.80;4.80;;;;;;;;5036507;28;8882;-73
2022/05/22 11:02:18;;;;;;;;;1.80;1.80;;;;;;;;5035951;28;8827;-73
2022/05/22 11:04:46;;;;;;;;;3.40;3.40;;;;;;;;5034961;28;8886;-73
2022/05/22 11:07:28;;;;;;;;;8.20;8.20;;;;;;;;5037012;28;8970;-73
2022/05/22 11:09:57;;;;;;;;;3.80;3.80;;;;;;;;5036569;28;8863;-73
2022/05/22 11:12:26;;;;;;;;;18.40;18.00;;;;;;;;5030828;28;8891;-75
2022/05/22 11:15:05;;;;;;;;;21.20;17.60;;;;;;;;5034520;28;8873;-75
2022/05/22 11:17:32;;;;;;;;;3.00;3.00;;;;;;;;5031756;28;8909;-74
2022/05/22 11:20:04;;;;;;;;;4.40;4.40;;;;;;;;5036166;28;8891;-77
2022/05/22 11:22:38;;;;;;;;;4.60;4.60;;;;;;;;5036021;28;9011;-75
2022/05/22 11:25:25;;;;;;;;;5.00;3.00;;;;;;;;5035574;28;8912;-76
2022/05/22 11:28:01;;;;;;;;;4.80;4.80;;;;;;;;5030828;28;8859;-74
2022/05/22 11:30:35;;;;;;;;;3.80;3.80;;;;;;;;5037842;28;8817;-73
2022/05/22 11:33:27;;;;;;;;;3.00;3.00;;;;;;;;5033148;28;9004;-75
2022/05/22 11:36:00;;;;;;;;;3.00;3.00;;;;;;;;5031873;28;8909;-74
2022/05/22 11:38:50;;;;;;;;;4.20;3.80;;;;;;;;5032767;28;8876;-74
2022/05/22 11:41:24;;;;;;;;;3.80;3.80;;;;;;;;5035844;28;8877;-73
2022/05/22 11:44:13;;;;;;;;;1.80;1.80;;;;;;;;5035418;28;8885;-73
2022/05/22 11:46:52;;;;;;;;;2.00;2.00;;;;;;;;5030300;28;8859;-74
2022/05/22 11:49:29;;;;;;;;;3.40;3.40;;;;;;;;5035503;28;8890;-74
2022/05/22 11:55:10;;;;;;;;;2.40;2.20;;;;;;;;5033190;28;8892;-73
2022/05/22 11:57:41;;;;;;;;;1.80;1.80;;;;;;;;5035985;28;8881;-73
2022/05/22 12:00:19;;;;;;;;;1.20;1.20;;;;;;;;5035726;28;8886;-73
2022/05/22 12:03:10;;;;;;;;;1.00;1.00;;;;;;;;5036729;28;9695;-73
2022/05/22 12:05:47;;;;;;;;;1.60;1.60;;;;;;;;5032579;28;8858;-73
2022/05/22 12:08:40;;;;;;;;;3.80;3.80;;;;;;;;5039908;28;8863;-74
2022/05/22 12:11:14;;;;;;;;;2.80;1.80;;;;;;;;5033855;28;8882;-75
2022/05/22 12:13:49;;;;;;;;;2.80;2.80;;;;;;;;5031123;28;8875;-74
2022/05/22 12:16:20;;;;;;;;;2.40;2.40;;;;;;;;5033013;28;8858;-72
2022/05/22 12:18:55;;;;;;;;;13.00;9.80;;;;;;;;5031883;28;8856;-73
2022/05/22 12:21:31;;;;;;;;;11.40;10.40;;;;;;;;5035248;28;8889;-72
2022/05/22 12:24:07;;;;;;;;;5.80;5.80;;;;;;;;5037514;28;8887;-73
2022/05/22 12:26:36;;;;;;;;;7.60;7.20;;;;;;;;5039119;28;8874;-73
2022/05/22 12:29:07;;;;;;;;;2.00;2.00;;;;;;;;5035844;28;8857;-74
2022/05/22 12:31:41;;;;;;;;;1.00;0.80;;;;;;;;5036632;28;8827;-74
2022/05/22 12:34:10;;;;;;;;;1.40;1.40;;;;;;;;5035761;28;8874;-72
2022/05/22 12:36:40;;;;;;;;;4.60;1.00;;;;;;;;5034465;28;9009;-74
2022/05/22 12:39:11;;;;;;;;;0.80;0.80;;;;;;;;5036740;28;8893;-74
2022/05/22 12:41:50;;;;;;;;;1.80;1.80;;;;;;;;5036754;28;8870;-76
2022/05/22 12:44:17;;;;;;;;;10.60;10.60;;;;;;;;5034290;28;11652;-74
2022/05/22 12:46:45;;;;;;;;;62.00;50.75;;;;;;;;5033624;28;8855;-74
2022/05/22 12:49:23;;;;;;;;;8.40;8.40;;;;;;;;5031970;28;8881;-75
2022/05/22 12:52:02;;;;;;;;;3.60;2.80;;;;;;;;5038613;28;8882;-74
2022/05/22 12:54:31;;;;;;;;;0.60;0.60;;;;;;;;5041513;28;9601;-73
2022/05/22 12:57:15;;;;;;;;;0.80;0.80;;;;;;;;5046933;28;8871;-76
2022/05/22 12:59:55;;;;;;;;;1.20;1.20;;;;;;;;5045680;28;9613;-77
2022/05/22 13:02:36;;;;;;;;;6.80;1.40;;;;;;;;5040588;28;8881;-75
2022/05/22 13:05:12;;;;;;;;;3.20;1.80;;;;;;;;5037810;28;8885;-74
2022/05/22 13:07:39;;;;;;;;;0.80;0.80;;;;;;;;5038125;28;8861;-74
2022/05/22 13:10:26;;;;;;;;;0.80;0.80;;;;;;;;5041456;28;8867;-72
2022/05/22 13:12:58;;;;;;;;;1.40;1.40;;;;;;;;5039858;28;8859;-73
2022/05/22 13:15:27;;;;;;;;;1.20;1.20;;;;;;;;5038946;28;8859;-73
2022/05/22 13:18:12;;;;;;;;;1.20;1.20;;;;;;;;5042121;28;8924;-76
2022/05/22 13:20:55;;;;;;;;;1.20;1.20;;;;;;;;5039072;28;8903;-74
2022/05/22 13:23:38;;;;;;;;;1.60;1.20;;;;;;;;5039624;28;8870;-74
2022/05/22 13:26:09;;;;;;;;;2.20;1.00;;;;;;;;5037972;28;8855;-75
2022/05/22 13:28:54;;;;;;;;;0.80;0.80;;;;;;;;5039120;28;8847;-75
2022/05/22 13:31:30;;;;;;;;;0.80;0.80;;;;;;;;5043823;28;8815;-75
2022/05/22 13:34:09;;;;;;;;;0.80;0.80;;;;;;;;5042778;28;8881;-74
2022/05/22 13:36:44;;;;;;;;;0.80;0.80;;;;;;;;5041141;28;8905;-74
2022/05/22 13:39:20;;;;;;;;;0.80;0.80;;;;;;;;5045165;28;8865;-73
2022/05/22 13:42:22;;;;;;;;;0.80;0.80;;;;;;;;5036023;28;8879;-74
2022/05/22 13:45:21;;;;;;;;;1.80;1.00;;;;;;;;5037918;28;8875;-73
2022/05/22 13:48:24;;;;;;;;;0.80;0.80;;;;;;;;5039437;28;8861;-73
2022/05/22 13:53:50;;;;;;;;;0.80;0.80;;;;;;;;5042318;28;8859;-75
2022/05/22 13:56:19;;;;;;;;;0.80;0.80;;;;;;;;5037590;28;8859;-75
2022/05/22 13:58:49;;;;;;;;;0.80;0.80;;;;;;;;5036345;28;8878;-76
2022/05/22 14:01:20;;;;;;;;;1.20;0.40;;;;;;;;5041802;28;8817;-75
2022/05/22 14:03:51;;;;;;;;;0.60;0.60;;;;;;;;5035520;28;8863;-75
2022/05/22 14:06:27;;;;;;;;;0.80;0.80;;;;;;;;5032336;28;8889;-75
2022/05/22 14:08:57;;;;;;;;;0.80;0.80;;;;;;;;5029945;28;8917;-75
2022/05/22 14:11:27;;;;;;;;;1.80;1.80;;;;;;;;5032702;28;8893;-76
2022/05/22 14:13:56;;;;;;;;;2.60;0.80;;;;;;;;5032133;28;8881;-75
2022/05/22 14:16:28;;;;;;;;;0.80;0.80;;;;;;;;5031419;28;8873;-76
2022/05/22 14:19:00;;;;;;;;;1.40;1.40;;;;;;;;5035239;28;8872;-74
2022/05/22 14:21:28;;;;;;;;;2.60;0.80;;;;;;;;5038406;28;8878;-74
2022/05/22 14:26:41;;;;;;;;;1.60;1.60;;;;;;;;5029115;28;8851;-73
2022/05/22 14:29:09;;;;;;;;;1.40;1.40;;;;;;;;5037800;28;8855;-74
2022/05/22 14:31:47;;;;;;;;;1.20;1.20;;;;;;;;5037496;28;8901;-75
2022/05/22 14:34:21;;;;;;;;;1.00;1.00;;;;;;;;5036561;28;8867;-71
2022/05/22 14:36:52;;;;;;;;;2.20;1.60;;;;;;;;5035472;28;8859;-74
2022/05/22 14:39:19;;;;;;;;;0.80;0.80;;;;;;;;5035810;28;9620;-74
2022/05/22 14:41:48;;;;;;;;;1.60;1.60;;;;;;;;5037115;28;8924;-74
2022/05/22 14:44:19;;;;;;;;;0.80;0.80;;;;;;;;5033924;28;8867;-74
2022/05/22 14:46:51;;;;;;;;;0.80;0.80;;;;;;;;5030506;28;9054;-74
2022/05/22 14:49:21;;;;;;;;;0.80;0.80;;;;;;;;5037295;28;8865;-73
2022/05/22 14:51:51;;;;;;;;;1.20;1.20;;;;;;;;5028510;28;8883;-74
2022/05/22 14:54:20;;;;;;;;;1.60;1.60;;;;;;;;5036412;28;8867;-74
2022/05/22 14:56:51;;;;;;;;;1.20;1.20;;;;;;;;5030405;28;8898;-74
2022/05/22 14:59:23;;;;;;;;;1.80;1.80;;;;;;;;5033024;28;8879;-74
2022/05/22 15:01:54;;;;;;;;;1.60;1.60;;;;;;;;5030394;28;8792;-75
2022/05/22 15:04:23;;;;;;;;;1.40;1.40;;;;;;;;5035925;28;8965;-74
2022/05/22 15:06:57;;;;;;;;;1.00;1.00;;;;;;;;5031376;28;9025;-73
2022/05/22 15:09:26;;;;;;;;;0.00;0.00;;;;;;;;5031132;28;8892;-73
2022/05/22 15:11:54;;;;;;;;;0.80;0.80;;;;;;;;5031723;28;8971;-74
2022/05/22 15:14:29;;;;;;;;;0.60;0.60;;;;;;;;5032803;28;8858;-74
2022/05/22 15:16:59;;;;;;;;;2.80;1.00;;;;;;;;5021751;28;8882;-73
2022/05/22 15:25:29;;;;;;;;;1.80;1.80;;;;;;;;5022381;28;8865;-74
2022/05/22 15:27:59;;;;;;;;;1.20;1.20;;;;;;;;5035465;28;8881;-71
2022/05/22 15:30:29;;;;;;;;;1.80;1.80;;;;;;;;5027157;28;8843;-74
2022/05/22 15:33:16;;;;;;;;;3.80;0.80;;;;;;;;5031464;28;8886;-74
2022/05/22 15:35:43;;;;;;;;;2.00;2.00;;;;;;;;5031321;28;8905;-74
2022/05/22 15:38:24;;;;;;;;;0.60;0.60;;;;;;;;5030746;28;8859;-74
2022/05/22 15:40:52;;;;;;;;;1.60;1.60;;;;;;;;5033678;28;8985;-74